Qaanaaq

KL  EN  DA
ASIAQ
Weather Now GREENLAND SURVEY
Updated [WGT/WGST] Temperature [°C] Wind [m/s] Air pressure [hPa] Relative humidity [%] Precipitation [mm]
Present Wind chill Speed Max
19.10 01:00-12,0-15,21,4 ⇙2,6101457n/a
19.10 00:00-11,70,00,8 ⇙2,1101456n/a
18.10 23:00-11,0-16,22,6 ⇙3,6101461n/a
18.10 22:00-10,8-16,63,1 ⇙4,1101457n/a
18.10 21:00-10,8-18,04,5 ⇙5,7101456n/a
18.10 20:00-11,6-20,05,8 ⇐7,2101458n/a
18.10 19:00-10,5-18,35,3 ⇙6,7101448n/a
18.10 18:00-10,2-16,33,5 ⇙5,7101445n/a
18.10 17:00-11,0-17,23,4 ⇙5,1101343n/a
18.10 16:00-10,7-15,42,3 ⇓3,6101350n/a
18.10 15:00-10,9-17,84,1 ⇓5,7101354n/a
18.10 14:00-10,8-19,05,8 ⇓7,7101350n/a
18.10 13:00-10,6-18,96,0 ⇓8,8101253n/a
18.10 12:00-10,0-17,34,8 ⇓8,8101254n/a
18.10 11:00-8,6-16,76,6 ⇓8,2101257n/a
18.10 10:00-8,3-16,67,0 ⇘9,3101161n/a
18.10 09:00-7,7-15,56,4 ⇘7,7101175n/a
18.10 08:00-6,6-13,25,1 ⇘6,2101184n/a
18.10 07:00-4,3-9,94,5 ⇐5,7101073n/a
18.10 06:00-4,4-9,63,9 ⇐5,1101073n/a
18.10 05:00-4,3-9,84,3 ⇖6,7101080n/a
18.10 04:00-4,8-10,03,8 ⇖6,2101185n/a
18.10 03:00-4,3-9,64,1 ⇑8,2101187n/a
18.10 02:00-4,1-10,96,4 ⇐8,2101179n/a
18.10 01:00-4,1-9,54,2 ⇖5,1101180n/a
Position: (77.48527778,-69.3744444444)

[Back]